createdAt,value
2023-10-20T00:03:40.007Z,120.38
2023-10-20T00:13:53.486Z,119.07
2023-10-20T00:23:55.770Z,120.13
2023-10-20T00:33:57.957Z,111.30
2023-10-20T01:30:12.316Z,108.32
2023-10-20T01:40:14.745Z,104.60
2023-10-20T01:50:17.706Z,105.43
2023-10-20T02:00:23.421Z,117.72
2023-10-20T02:10:31.879Z,102.38
2023-10-20T02:20:56.431Z,112.70
2023-10-20T02:31:01.198Z,98.45
2023-10-20T02:41:06.387Z,97.63
2023-10-20T02:51:15.679Z,100.88
2023-10-20T03:01:19.150Z,101.63
2023-10-20T03:11:24.726Z,90.63
2023-10-20T03:21:35.884Z,85.88
2023-10-20T03:31:47.138Z,92.68
2023-10-20T03:41:49.705Z,131.32
2023-10-20T03:51:51.586Z,100.25
2023-10-20T04:01:53.849Z,82.70
2023-10-20T04:12:02.064Z,86.30
2023-10-20T04:22:03.949Z,87.50
2023-10-20T04:32:05.866Z,77.82
2023-10-20T04:42:07.857Z,93.60
2023-10-20T04:52:10.313Z,96.90
2023-10-20T05:02:12.235Z,77.38
2023-10-20T05:12:14.174Z,113.43
2023-10-20T05:22:16.155Z,82.63
2023-10-20T05:32:18.294Z,69.93
2023-10-20T05:42:20.592Z,78.30
2023-10-20T05:52:22.711Z,75.20
2023-10-20T06:02:26.835Z,83.60
2023-10-20T06:12:32.015Z,95.90
2023-10-20T06:22:35.975Z,78.10
2023-10-20T06:32:38.180Z,79.53
2023-10-20T06:42:40.216Z,72.28
2023-10-20T06:52:44.907Z,86.97
2023-10-20T07:02:49.730Z,80.28
2023-10-20T07:12:56.842Z,62.53
2023-10-20T07:23:01.624Z,66.53
2023-10-20T07:33:22.660Z,58.08
2023-10-20T07:43:24.740Z,59.15
2023-10-20T07:53:32.853Z,62.47
2023-10-20T08:03:45.209Z,53.00
2023-10-20T08:13:50.421Z,58.40
2023-10-20T08:23:52.478Z,53.83
2023-10-20T08:33:54.581Z,49.38
2023-10-20T08:43:57.198Z,53.58
2023-10-20T08:53:59.320Z,49.92
2023-10-20T09:04:01.400Z,47.35
2023-10-20T09:14:03.586Z,45.53
2023-10-20T09:24:07.539Z,45.42
2023-10-20T09:34:09.423Z,42.50
2023-10-20T09:44:17.453Z,45.75
2023-10-20T09:54:29.512Z,43.15
2023-10-20T10:04:38.387Z,35.42
2023-10-20T10:14:42.150Z,38.05
2023-10-20T10:24:53.408Z,42.95
2023-10-20T10:34:57.817Z,38.40
2023-10-20T10:45:00.371Z,34.72
2023-10-20T10:55:02.311Z,43.92
2023-10-20T11:05:04.491Z,39.03
2023-10-20T11:15:07.137Z,34.92
2023-10-20T11:25:18.530Z,47.75
2023-10-20T11:35:20.535Z,39.20
2023-10-20T11:45:22.439Z,42.22
2023-10-20T11:55:24.489Z,41.22
2023-10-20T12:05:26.552Z,42.40
2023-10-20T12:15:28.505Z,36.88
2023-10-20T12:25:30.667Z,27.65
2023-10-20T12:35:32.847Z,45.78
2023-10-20T12:45:37.870Z,38.15
2023-10-20T12:55:39.821Z,36.08
2023-10-20T13:05:41.754Z,38.70
2023-10-20T13:15:44.007Z,36.58
2023-10-20T13:25:45.977Z,38.90
2023-10-20T13:35:47.932Z,43.78
2023-10-20T13:45:50.133Z,35.85
2023-10-20T13:55:52.357Z,47.63
2023-10-20T14:05:55.238Z,37.42
2023-10-20T14:15:57.193Z,44.88
2023-10-20T14:25:59.721Z,42.70
2023-10-20T14:36:02.817Z,36.28
2023-10-20T14:46:06.404Z,43.63
2023-10-20T14:56:15.847Z,60.97
2023-10-20T15:06:17.772Z,63.05
2023-10-20T15:16:19.743Z,113.40
2023-10-20T15:26:21.768Z,53.05
2023-10-20T15:36:23.609Z,52.50
2023-10-20T15:46:25.572Z,49.20
2023-10-20T15:56:27.495Z,46.55
2023-10-20T16:06:29.424Z,48.28
2023-10-20T16:16:31.371Z,82.18
2023-10-20T16:26:33.175Z,70.85
2023-10-20T16:36:35.106Z,58.15
2023-10-20T16:46:37.613Z,101.57
2023-10-20T16:56:40.386Z,72.15
2023-10-20T17:06:42.285Z,45.25
2023-10-20T17:16:45.473Z,60.75
2023-10-20T17:26:57.168Z,72.10
2023-10-20T17:37:19.992Z,44.13
2023-10-20T17:47:44.594Z,70.72
2023-10-20T17:58:05.607Z,52.90
2023-10-20T18:08:09.332Z,87.22
2023-10-20T18:18:23.942Z,73.53
2023-10-20T18:40:39.330Z,52.35
2023-10-20T19:48:45.702Z,48.95
2023-10-20T19:58:51.852Z,48.58
2023-10-20T20:08:55.505Z,58.80
2023-10-20T20:30:42.534Z,36.38
2023-10-20T21:02:33.798Z,33.67
2023-10-20T21:12:35.889Z,36.60
2023-10-20T21:33:41.922Z,23.05
2023-10-20T21:43:45.430Z,29.00
2023-10-20T21:53:47.290Z,36.50
2023-10-20T22:03:49.328Z,60.45
2023-10-20T22:13:51.392Z,27.60
2023-10-20T22:23:53.593Z,28.10
2023-10-20T22:33:55.730Z,36.03
2023-10-20T22:43:57.665Z,40.90
2023-10-20T22:53:59.650Z,50.38
2023-10-20T23:04:01.700Z,38.60
2023-10-20T23:14:04.053Z,44.10
2023-10-20T23:24:06.471Z,28.08
2023-10-20T23:34:20.622Z,23.58
2023-10-20T23:44:22.795Z,33.80
2023-10-20T23:54:26.629Z,39.10
